sensor_id;sensor_type;location;lat;lon;timestamp;temperature;humidity
27314;DHT22;14800;48.174;9.798;2023-05-10T00:01:46;16.00;87.40
27314;DHT22;14800;48.174;9.798;2023-05-10T00:04:11;16.00;87.50
27314;DHT22;14800;48.174;9.798;2023-05-10T00:06:37;16.00;87.50
27314;DHT22;14800;48.174;9.798;2023-05-10T00:09:03;16.00;87.60
27314;DHT22;14800;48.174;9.798;2023-05-10T00:11:29;15.90;87.50
27314;DHT22;14800;48.174;9.798;2023-05-10T00:13:54;15.90;87.60
27314;DHT22;14800;48.174;9.798;2023-05-10T00:16:20;15.90;87.50
27314;DHT22;14800;48.174;9.798;2023-05-10T00:18:46;15.90;87.50
27314;DHT22;14800;48.174;9.798;2023-05-10T00:21:11;15.90;87.50
27314;DHT22;14800;48.174;9.798;2023-05-10T00:23:37;15.90;87.60
27314;DHT22;14800;48.174;9.798;2023-05-10T00:26:03;15.90;87.60
27314;DHT22;14800;48.174;9.798;2023-05-10T00:28:28;15.80;87.60
27314;DHT22;14800;48.174;9.798;2023-05-10T00:30:54;15.80;87.70
27314;DHT22;14800;48.174;9.798;2023-05-10T00:33:20;15.80;87.70
27314;DHT22;14800;48.174;9.798;2023-05-10T00:35:46;15.80;87.70
27314;DHT22;14800;48.174;9.798;2023-05-10T00:38:12;15.80;87.70
27314;DHT22;14800;48.174;9.798;2023-05-10T00:40:37;15.80;87.60
27314;DHT22;14800;48.174;9.798;2023-05-10T00:43:03;15.80;87.70
27314;DHT22;14800;48.174;9.798;2023-05-10T00:45:30;15.80;87.60
27314;DHT22;14800;48.174;9.798;2023-05-10T00:47:56;15.70;87.60
27314;DHT22;14800;48.174;9.798;2023-05-10T00:50:22;15.70;87.60
27314;DHT22;14800;48.174;9.798;2023-05-10T00:52:48;15.70;87.60
27314;DHT22;14800;48.174;9.798;2023-05-10T00:55:14;15.70;87.60
27314;DHT22;14800;48.174;9.798;2023-05-10T00:57:40;15.70;87.70
27314;DHT22;14800;48.174;9.798;2023-05-10T01:00:06;15.70;87.70
27314;DHT22;14800;48.174;9.798;2023-05-10T01:02:34;15.60;87.60
27314;DHT22;14800;48.174;9.798;2023-05-10T01:05:00;15.60;87.70
27314;DHT22;14800;48.174;9.798;2023-05-10T01:07:26;15.60;87.80
27314;DHT22;14800;48.174;9.798;2023-05-10T01:09:52;15.60;87.80
27314;DHT22;14800;48.174;9.798;2023-05-10T01:12:18;15.60;87.90
27314;DHT22;14800;48.174;9.798;2023-05-10T01:14:44;15.50;87.70
27314;DHT22;14800;48.174;9.798;2023-05-10T01:17:10;15.50;87.80
27314;DHT22;14800;48.174;9.798;2023-05-10T01:19:37;15.50;88.00
27314;DHT22;14800;48.174;9.798;2023-05-10T01:33:32;15.40;89.00
27314;DHT22;14800;48.174;9.798;2023-05-10T01:36:05;15.40;89.10
27314;DHT22;14800;48.174;9.798;2023-05-10T01:39:32;15.40;88.60
27314;DHT22;14800;48.174;9.798;2023-05-10T01:41:52;15.40;89.20
27314;DHT22;14800;48.174;9.798;2023-05-10T01:44:34;15.40;89.50
27314;DHT22;14800;48.174;9.798;2023-05-10T01:47:11;15.30;88.50
27314;DHT22;14800;48.174;9.798;2023-05-10T01:49:49;15.30;88.80
27314;DHT22;14800;48.174;9.798;2023-05-10T01:52:18;15.30;88.60
27314;DHT22;14800;48.174;9.798;2023-05-10T01:54:54;15.40;88.70
27314;DHT22;14800;48.174;9.798;2023-05-10T01:57:22;15.30;88.70
27314;DHT22;14800;48.174;9.798;2023-05-10T01:59:51;15.30;88.80
27314;DHT22;14800;48.174;9.798;2023-05-10T02:02:20;15.40;88.80
27314;DHT22;14800;48.174;9.798;2023-05-10T02:04:46;15.30;88.70
27314;DHT22;14800;48.174;9.798;2023-05-10T02:07:14;15.30;88.70
27314;DHT22;14800;48.174;9.798;2023-05-10T02:09:40;15.30;88.70
27314;DHT22;14800;48.174;9.798;2023-05-10T02:12:07;15.30;88.80
27314;DHT22;14800;48.174;9.798;2023-05-10T02:14:36;15.30;89.70
27314;DHT22;14800;48.174;9.798;2023-05-10T02:17:04;15.30;88.80
27314;DHT22;14800;48.174;9.798;2023-05-10T02:19:30;15.30;88.80
27314;DHT22;14800;48.174;9.798;2023-05-10T02:21:58;15.30;88.80
27314;DHT22;14800;48.174;9.798;2023-05-10T02:24:25;15.30;88.80
27314;DHT22;14800;48.174;9.798;2023-05-10T02:26:53;15.30;88.70
27314;DHT22;14800;48.174;9.798;2023-05-10T02:29:20;15.30;88.70
27314;DHT22;14800;48.174;9.798;2023-05-10T02:31:49;15.30;88.80
27314;DHT22;14800;48.174;9.798;2023-05-10T02:34:16;15.30;88.80
27314;DHT22;14800;48.174;9.798;2023-05-10T02:36:42;15.20;88.80
27314;DHT22;14800;48.174;9.798;2023-05-10T02:39:08;15.20;88.70
27314;DHT22;14800;48.174;9.798;2023-05-10T02:41:38;15.20;88.60
27314;DHT22;14800;48.174;9.798;2023-05-10T02:44:07;15.20;88.70
27314;DHT22;14800;48.174;9.798;2023-05-10T02:46:33;15.20;88.70
27314;DHT22;14800;48.174;9.798;2023-05-10T02:49:00;15.20;88.60
27314;DHT22;14800;48.174;9.798;2023-05-10T02:51:29;15.20;88.50
27314;DHT22;14800;48.174;9.798;2023-05-10T02:53:57;15.20;88.40
27314;DHT22;14800;48.174;9.798;2023-05-10T02:56:35;15.20;88.30
27314;DHT22;14800;48.174;9.798;2023-05-10T02:59:01;15.10;88.50
27314;DHT22;14800;48.174;9.798;2023-05-10T03:01:27;15.20;88.30
27314;DHT22;14800;48.174;9.798;2023-05-10T03:03:52;15.10;88.30
27314;DHT22;14800;48.174;9.798;2023-05-10T03:06:18;15.10;88.20
27314;DHT22;14800;48.174;9.798;2023-05-10T03:08:45;15.10;88.00
27314;DHT22;14800;48.174;9.798;2023-05-10T03:11:47;15.10;87.90
27314;DHT22;14800;48.174;9.798;2023-05-10T03:19:29;15.00;87.40
27314;DHT22;14800;48.174;9.798;2023-05-10T03:21:56;15.00;87.60
27314;DHT22;14800;48.174;9.798;2023-05-10T03:24:26;14.90;87.80
27314;DHT22;14800;48.174;9.798;2023-05-10T03:26:55;14.90;87.20
27314;DHT22;14800;48.174;9.798;2023-05-10T03:29:22;14.90;87.30
27314;DHT22;14800;48.174;9.798;2023-05-10T03:31:50;14.80;87.30
27314;DHT22;14800;48.174;9.798;2023-05-10T03:34:16;14.80;87.30
27314;DHT22;14800;48.174;9.798;2023-05-10T03:36:42;14.80;87.40
27314;DHT22;14800;48.174;9.798;2023-05-10T03:39:08;14.80;87.50
27314;DHT22;14800;48.174;9.798;2023-05-10T03:41:34;14.80;87.40
27314;DHT22;14800;48.174;9.798;2023-05-10T03:43:59;14.80;87.40
27314;DHT22;14800;48.174;9.798;2023-05-10T03:46:25;14.80;87.30
27314;DHT22;14800;48.174;9.798;2023-05-10T03:48:50;14.80;87.40
27314;DHT22;14800;48.174;9.798;2023-05-10T03:51:16;14.80;87.40
27314;DHT22;14800;48.174;9.798;2023-05-10T03:53:42;14.80;87.40
27314;DHT22;14800;48.174;9.798;2023-05-10T03:56:07;14.80;87.40
27314;DHT22;14800;48.174;9.798;2023-05-10T03:58:33;14.80;87.40
27314;DHT22;14800;48.174;9.798;2023-05-10T04:00:58;14.80;87.30
27314;DHT22;14800;48.174;9.798;2023-05-10T04:03:24;14.80;87.20
27314;DHT22;14800;48.174;9.798;2023-05-10T04:06:01;14.80;87.10
27314;DHT22;14800;48.174;9.798;2023-05-10T04:08:27;14.80;87.30
27314;DHT22;14800;48.174;9.798;2023-05-10T04:10:52;14.80;87.00
27314;DHT22;14800;48.174;9.798;2023-05-10T04:13:18;14.80;87.10
27314;DHT22;14800;48.174;9.798;2023-05-10T04:15:44;14.80;87.00
27314;DHT22;14800;48.174;9.798;2023-05-10T04:18:10;14.80;87.10
27314;DHT22;14800;48.174;9.798;2023-05-10T04:20:35;14.80;87.20
27314;DHT22;14800;48.174;9.798;2023-05-10T04:23:01;14.70;87.20
27314;DHT22;14800;48.174;9.798;2023-05-10T04:25:26;14.80;87.30
27314;DHT22;14800;48.174;9.798;2023-05-10T04:27:52;14.80;87.40
27314;DHT22;14800;48.174;9.798;2023-05-10T04:30:18;14.70;87.40
27314;DHT22;14800;48.174;9.798;2023-05-10T04:32:43;14.70;87.40
27314;DHT22;14800;48.174;9.798;2023-05-10T04:35:09;14.70;87.50
27314;DHT22;14800;48.174;9.798;2023-05-10T04:37:35;14.70;87.60
27314;DHT22;14800;48.174;9.798;2023-05-10T04:40:02;14.80;87.60
27314;DHT22;14800;48.174;9.798;2023-05-10T04:42:28;14.70;87.60
27314;DHT22;14800;48.174;9.798;2023-05-10T04:44:54;14.80;87.80
27314;DHT22;14800;48.174;9.798;2023-05-10T04:47:20;14.80;87.80
27314;DHT22;14800;48.174;9.798;2023-05-10T04:49:45;14.80;87.90
27314;DHT22;14800;48.174;9.798;2023-05-10T04:52:11;14.80;87.90
27314;DHT22;14800;48.174;9.798;2023-05-10T04:54:36;14.80;87.80
27314;DHT22;14800;48.174;9.798;2023-05-10T04:57:02;14.80;87.90
27314;DHT22;14800;48.174;9.798;2023-05-10T04:59:28;14.80;88.80
27314;DHT22;14800;48.174;9.798;2023-05-10T05:01:53;14.80;88.00
27314;DHT22;14800;48.174;9.798;2023-05-10T05:04:19;14.80;88.00
27314;DHT22;14800;48.174;9.798;2023-05-10T05:06:44;14.80;87.90
27314;DHT22;14800;48.174;9.798;2023-05-10T05:09:10;14.80;87.80
27314;DHT22;14800;48.174;9.798;2023-05-10T05:11:35;14.90;87.80
27314;DHT22;14800;48.174;9.798;2023-05-10T05:14:01;14.80;87.60
27314;DHT22;14800;48.174;9.798;2023-05-10T05:16:27;14.80;87.80
27314;DHT22;14800;48.174;9.798;2023-05-10T05:18:52;14.80;87.80
27314;DHT22;14800;48.174;9.798;2023-05-10T05:21:19;14.90;87.90
27314;DHT22;14800;48.174;9.798;2023-05-10T05:23:45;14.80;87.80
27314;DHT22;14800;48.174;9.798;2023-05-10T05:26:11;14.90;87.80
27314;DHT22;14800;48.174;9.798;2023-05-10T05:28:37;14.90;87.80
27314;DHT22;14800;48.174;9.798;2023-05-10T05:31:06;14.90;87.70
27314;DHT22;14800;48.174;9.798;2023-05-10T05:33:33;15.00;87.60
27314;DHT22;14800;48.174;9.798;2023-05-10T05:36:04;14.90;87.50
27314;DHT22;14800;48.174;9.798;2023-05-10T05:38:29;15.00;87.60
27314;DHT22;14800;48.174;9.798;2023-05-10T05:40:55;15.00;87.40
27314;DHT22;14800;48.174;9.798;2023-05-10T05:43:21;15.00;87.40
27314;DHT22;14800;48.174;9.798;2023-05-10T05:45:46;15.00;87.40
27314;DHT22;14800;48.174;9.798;2023-05-10T05:48:12;15.00;87.60
27314;DHT22;14800;48.174;9.798;2023-05-10T05:50:38;15.00;87.60
27314;DHT22;14800;48.174;9.798;2023-05-10T05:53:03;15.10;87.50
27314;DHT22;14800;48.174;9.798;2023-05-10T05:55:29;15.10;87.50
27314;DHT22;14800;48.174;9.798;2023-05-10T05:57:57;15.00;87.50
27314;DHT22;14800;48.174;9.798;2023-05-10T06:00:22;15.00;87.50
27314;DHT22;14800;48.174;9.798;2023-05-10T06:02:48;15.10;87.60
27314;DHT22;14800;48.174;9.798;2023-05-10T06:05:14;15.10;87.80
27314;DHT22;14800;48.174;9.798;2023-05-10T06:07:40;15.20;87.80
27314;DHT22;14800;48.174;9.798;2023-05-10T06:10:08;15.20;87.70
27314;DHT22;14800;48.174;9.798;2023-05-10T06:12:33;15.20;87.80
27314;DHT22;14800;48.174;9.798;2023-05-10T06:14:59;15.20;87.90
27314;DHT22;14800;48.174;9.798;2023-05-10T06:17:25;15.30;87.80
27314;DHT22;14800;48.174;9.798;2023-05-10T06:19:50;15.30;87.70
27314;DHT22;14800;48.174;9.798;2023-05-10T06:22:16;15.30;87.80
27314;DHT22;14800;48.174;9.798;2023-05-10T06:24:41;15.30;87.90
27314;DHT22;14800;48.174;9.798;2023-05-10T06:27:07;15.30;87.90
27314;DHT22;14800;48.174;9.798;2023-05-10T06:29:33;15.40;88.00
27314;DHT22;14800;48.174;9.798;2023-05-10T06:31:58;15.40;87.90
27314;DHT22;14800;48.174;9.798;2023-05-10T06:34:24;15.50;87.80
27314;DHT22;14800;48.174;9.798;2023-05-10T06:36:50;15.50;87.70
27314;DHT22;14800;48.174;9.798;2023-05-10T06:39:15;15.50;87.70
27314;DHT22;14800;48.174;9.798;2023-05-10T06:41:41;15.60;87.60
27314;DHT22;14800;48.174;9.798;2023-05-10T06:44:07;15.60;87.40
27314;DHT22;14800;48.174;9.798;2023-05-10T06:46:33;15.60;87.30
27314;DHT22;14800;48.174;9.798;2023-05-10T06:48:59;15.60;86.90
27314;DHT22;14800;48.174;9.798;2023-05-10T06:51:25;15.60;86.70
27314;DHT22;14800;48.174;9.798;2023-05-10T06:53:51;15.70;86.60
27314;DHT22;14800;48.174;9.798;2023-05-10T06:56:16;15.70;86.60
27314;DHT22;14800;48.174;9.798;2023-05-10T06:58:42;15.70;86.60
27314;DHT22;14800;48.174;9.798;2023-05-10T07:01:07;15.70;86.50
27314;DHT22;14800;48.174;9.798;2023-05-10T07:03:33;15.80;86.50
27314;DHT22;14800;48.174;9.798;2023-05-10T07:06:05;15.70;86.50
27314;DHT22;14800;48.174;9.798;2023-05-10T07:08:35;15.80;86.60
27314;DHT22;14800;48.174;9.798;2023-05-10T07:11:05;15.80;86.60
27314;DHT22;14800;48.174;9.798;2023-05-10T07:13:32;15.80;86.50
27314;DHT22;14800;48.174;9.798;2023-05-10T07:15:59;15.80;86.20
27314;DHT22;14800;48.174;9.798;2023-05-10T07:18:26;15.80;85.80
27314;DHT22;14800;48.174;9.798;2023-05-10T07:20:51;15.90;85.80
27314;DHT22;14800;48.174;9.798;2023-05-10T07:23:18;15.90;85.70
27314;DHT22;14800;48.174;9.798;2023-05-10T07:25:47;15.90;85.50
27314;DHT22;14800;48.174;9.798;2023-05-10T07:28:14;15.90;85.30
27314;DHT22;14800;48.174;9.798;2023-05-10T07:30:40;15.80;85.30
27314;DHT22;14800;48.174;9.798;2023-05-10T07:33:06;15.80;85.00
27314;DHT22;14800;48.174;9.798;2023-05-10T07:35:32;15.80;84.50
27314;DHT22;14800;48.174;9.798;2023-05-10T07:37:58;15.80;84.50
27314;DHT22;14800;48.174;9.798;2023-05-10T07:40:23;15.80;84.60
27314;DHT22;14800;48.174;9.798;2023-05-10T07:42:49;15.90;84.70
27314;DHT22;14800;48.174;9.798;2023-05-10T07:45:14;15.80;84.60
27314;DHT22;14800;48.174;9.798;2023-05-10T07:47:40;15.80;84.80
27314;DHT22;14800;48.174;9.798;2023-05-10T07:50:06;15.90;85.10
27314;DHT22;14800;48.174;9.798;2023-05-10T07:52:32;15.90;85.00
27314;DHT22;14800;48.174;9.798;2023-05-10T07:54:58;15.90;85.00
27314;DHT22;14800;48.174;9.798;2023-05-10T07:57:23;16.00;85.00
27314;DHT22;14800;48.174;9.798;2023-05-10T07:59:49;16.00;84.80
27314;DHT22;14800;48.174;9.798;2023-05-10T08:02:14;16.00;84.40
27314;DHT22;14800;48.174;9.798;2023-05-10T08:04:40;16.10;84.00
27314;DHT22;14800;48.174;9.798;2023-05-10T08:07:06;16.10;83.60
27314;DHT22;14800;48.174;9.798;2023-05-10T08:09:31;16.10;83.70
27314;DHT22;14800;48.174;9.798;2023-05-10T08:11:57;16.10;83.60
27314;DHT22;14800;48.174;9.798;2023-05-10T08:14:24;16.20;83.80
27314;DHT22;14800;48.174;9.798;2023-05-10T08:16:49;16.20;83.80
27314;DHT22;14800;48.174;9.798;2023-05-10T08:19:15;16.30;83.70
27314;DHT22;14800;48.174;9.798;2023-05-10T08:21:44;16.30;83.70
27314;DHT22;14800;48.174;9.798;2023-05-10T08:24:10;16.30;83.10
27314;DHT22;14800;48.174;9.798;2023-05-10T08:26:35;16.40;82.70
27314;DHT22;14800;48.174;9.798;2023-05-10T08:29:01;16.40;82.50
27314;DHT22;14800;48.174;9.798;2023-05-10T08:31:27;16.40;82.60
27314;DHT22;14800;48.174;9.798;2023-05-10T08:33:53;16.50;82.30
27314;DHT22;14800;48.174;9.798;2023-05-10T08:36:18;16.50;81.60
27314;DHT22;14800;48.174;9.798;2023-05-10T08:38:49;16.50;81.50
27314;DHT22;14800;48.174;9.798;2023-05-10T08:41:15;16.60;80.90
27314;DHT22;14800;48.174;9.798;2023-05-10T08:43:41;16.60;81.00
27314;DHT22;14800;48.174;9.798;2023-05-10T08:46:17;16.60;81.10
27314;DHT22;14800;48.174;9.798;2023-05-10T08:48:44;16.60;80.60
27314;DHT22;14800;48.174;9.798;2023-05-10T08:51:13;16.70;80.10
27314;DHT22;14800;48.174;9.798;2023-05-10T08:53:39;16.70;79.80
27314;DHT22;14800;48.174;9.798;2023-05-10T08:56:06;16.70;79.50
27314;DHT22;14800;48.174;9.798;2023-05-10T08:58:31;16.80;79.20
27314;DHT22;14800;48.174;9.798;2023-05-10T09:00:58;16.80;79.20
27314;DHT22;14800;48.174;9.798;2023-05-10T09:03:24;16.70;79.10
27314;DHT22;14800;48.174;9.798;2023-05-10T09:05:50;16.80;79.10
27314;DHT22;14800;48.174;9.798;2023-05-10T09:08:16;16.80;78.90
27314;DHT22;14800;48.174;9.798;2023-05-10T09:10:44;16.90;78.80
27314;DHT22;14800;48.174;9.798;2023-05-10T09:13:14;16.90;79.00
27314;DHT22;14800;48.174;9.798;2023-05-10T09:15:40;16.90;78.00
27314;DHT22;14800;48.174;9.798;2023-05-10T09:18:06;16.90;78.40
27314;DHT22;14800;48.174;9.798;2023-05-10T09:20:32;17.00;77.90
27314;DHT22;14800;48.174;9.798;2023-05-10T09:22:57;17.00;77.40
27314;DHT22;14800;48.174;9.798;2023-05-10T09:25:23;17.00;76.80
27314;DHT22;14800;48.174;9.798;2023-05-10T09:27:49;17.10;76.80
27314;DHT22;14800;48.174;9.798;2023-05-10T09:30:24;17.10;75.50
27314;DHT22;14800;48.174;9.798;2023-05-10T09:32:50;17.20;75.30
27314;DHT22;14800;48.174;9.798;2023-05-10T09:35:19;17.10;76.50
27314;DHT22;14800;48.174;9.798;2023-05-10T09:37:47;17.20;77.00
27314;DHT22;14800;48.174;9.798;2023-05-10T09:40:15;17.20;76.10
27314;DHT22;14800;48.174;9.798;2023-05-10T09:42:43;17.30;75.80
27314;DHT22;14800;48.174;9.798;2023-05-10T09:45:15;17.30;75.60
27314;DHT22;14800;48.174;9.798;2023-05-10T09:47:41;17.30;75.20
27314;DHT22;14800;48.174;9.798;2023-05-10T09:50:06;17.30;74.70
27314;DHT22;14800;48.174;9.798;2023-05-10T09:55:14;17.20;73.60
27314;DHT22;14800;48.174;9.798;2023-05-10T09:57:40;17.10;74.50
27314;DHT22;14800;48.174;9.798;2023-05-10T10:00:06;17.10;74.80
27314;DHT22;14800;48.174;9.798;2023-05-10T10:02:33;17.00;75.10
27314;DHT22;14800;48.174;9.798;2023-05-10T10:05:01;17.00;75.60
27314;DHT22;14800;48.174;9.798;2023-05-10T10:07:27;16.90;76.50
27314;DHT22;14800;48.174;9.798;2023-05-10T10:09:53;16.80;77.20
27314;DHT22;14800;48.174;9.798;2023-05-10T10:12:19;16.80;77.50
27314;DHT22;14800;48.174;9.798;2023-05-10T10:14:47;16.80;78.10
27314;DHT22;14800;48.174;9.798;2023-05-10T10:17:13;16.70;78.60
27314;DHT22;14800;48.174;9.798;2023-05-10T10:19:39;16.60;78.40
27314;DHT22;14800;48.174;9.798;2023-05-10T10:22:05;16.60;78.40
27314;DHT22;14800;48.174;9.798;2023-05-10T10:24:31;16.50;78.10
27314;DHT22;14800;48.174;9.798;2023-05-10T10:27:04;16.40;78.30
27314;DHT22;14800;48.174;9.798;2023-05-10T10:29:58;16.30;78.50
27314;DHT22;14800;48.174;9.798;2023-05-10T10:35:15;16.20;79.30
27314;DHT22;14800;48.174;9.798;2023-05-10T10:37:45;16.10;79.60
27314;DHT22;14800;48.174;9.798;2023-05-10T10:42:49;16.00;80.10
27314;DHT22;14800;48.174;9.798;2023-05-10T10:45:15;15.90;80.10
27314;DHT22;14800;48.174;9.798;2023-05-10T10:47:41;15.80;80.10
27314;DHT22;14800;48.174;9.798;2023-05-10T10:50:08;15.80;80.20
27314;DHT22;14800;48.174;9.798;2023-05-10T10:52:44;15.80;80.40
27314;DHT22;14800;48.174;9.798;2023-05-10T10:55:18;15.70;80.50
27314;DHT22;14800;48.174;9.798;2023-05-10T10:57:50;15.70;80.30
27314;DHT22;14800;48.174;9.798;2023-05-10T11:00:33;15.60;80.10
27314;DHT22;14800;48.174;9.798;2023-05-10T11:03:10;15.60;80.60
27314;DHT22;14800;48.174;9.798;2023-05-10T11:08:16;15.40;81.50
27314;DHT22;14800;48.174;9.798;2023-05-10T11:10:52;15.40;82.30
27314;DHT22;14800;48.174;9.798;2023-05-10T11:13:30;15.40;82.80
27314;DHT22;14800;48.174;9.798;2023-05-10T11:15:56;15.50;83.40
27314;DHT22;14800;48.174;9.798;2023-05-10T11:18:30;15.40;83.30
27314;DHT22;14800;48.174;9.798;2023-05-10T11:21:02;15.50;83.80
27314;DHT22;14800;48.174;9.798;2023-05-10T11:23:31;15.60;83.20
27314;DHT22;14800;48.174;9.798;2023-05-10T11:25:57;15.70;83.30
27314;DHT22;14800;48.174;9.798;2023-05-10T11:28:22;15.70;82.70
27314;DHT22;14800;48.174;9.798;2023-05-10T11:30:48;15.80;82.70
27314;DHT22;14800;48.174;9.798;2023-05-10T11:33:17;15.80;82.90
27314;DHT22;14800;48.174;9.798;2023-05-10T11:35:43;15.90;82.90
27314;DHT22;14800;48.174;9.798;2023-05-10T11:38:13;15.90;82.60
27314;DHT22;14800;48.174;9.798;2023-05-10T11:40:39;15.90;82.50
27314;DHT22;14800;48.174;9.798;2023-05-10T11:43:05;16.00;82.40
27314;DHT22;14800;48.174;9.798;2023-05-10T11:45:35;15.90;82.60
27314;DHT22;14800;48.174;9.798;2023-05-10T11:48:01;15.90;82.90
27314;DHT22;14800;48.174;9.798;2023-05-10T11:50:27;16.00;82.70
27314;DHT22;14800;48.174;9.798;2023-05-10T11:52:54;16.00;82.20
27314;DHT22;14800;48.174;9.798;2023-05-10T11:55:19;16.00;82.20
27314;DHT22;14800;48.174;9.798;2023-05-10T11:57:45;16.00;82.00
27314;DHT22;14800;48.174;9.798;2023-05-10T12:00:14;16.00;81.60
27314;DHT22;14800;48.174;9.798;2023-05-10T12:02:40;16.00;81.60
27314;DHT22;14800;48.174;9.798;2023-05-10T12:05:06;15.90;81.70
27314;DHT22;14800;48.174;9.798;2023-05-10T12:07:32;15.90;81.90
27314;DHT22;14800;48.174;9.798;2023-05-10T12:10:11;15.90;81.70
27314;DHT22;14800;48.174;9.798;2023-05-10T12:12:44;15.80;82.20
27314;DHT22;14800;48.174;9.798;2023-05-10T12:15:23;15.80;82.30
27314;DHT22;14800;48.174;9.798;2023-05-10T12:17:50;15.80;82.60
27314;DHT22;14800;48.174;9.798;2023-05-10T12:20:23;15.80;82.70
27314;DHT22;14800;48.174;9.798;2023-05-10T12:22:51;15.80;83.20
27314;DHT22;14800;48.174;9.798;2023-05-10T12:25:21;15.80;82.80
27314;DHT22;14800;48.174;9.798;2023-05-10T12:27:55;15.70;82.80
27314;DHT22;14800;48.174;9.798;2023-05-10T12:30:25;15.70;82.90
27314;DHT22;14800;48.174;9.798;2023-05-10T12:32:51;15.70;82.80
27314;DHT22;14800;48.174;9.798;2023-05-10T12:35:17;15.70;82.90
27314;DHT22;14800;48.174;9.798;2023-05-10T12:37:45;15.70;83.30
27314;DHT22;14800;48.174;9.798;2023-05-10T12:40:11;15.70;83.40
27314;DHT22;14800;48.174;9.798;2023-05-10T12:42:38;15.70;83.30
27314;DHT22;14800;48.174;9.798;2023-05-10T12:45:04;15.70;83.60
27314;DHT22;14800;48.174;9.798;2023-05-10T12:47:32;15.70;83.90
27314;DHT22;14800;48.174;9.798;2023-05-10T12:50:00;15.60;84.10
27314;DHT22;14800;48.174;9.798;2023-05-10T12:52:26;15.60;84.10
27314;DHT22;14800;48.174;9.798;2023-05-10T12:54:52;15.60;84.30
27314;DHT22;14800;48.174;9.798;2023-05-10T12:57:18;15.60;84.90
27314;DHT22;14800;48.174;9.798;2023-05-10T12:59:44;15.60;85.40
27314;DHT22;14800;48.174;9.798;2023-05-10T13:02:09;15.60;85.50
27314;DHT22;14800;48.174;9.798;2023-05-10T13:04:35;15.60;85.20
27314;DHT22;14800;48.174;9.798;2023-05-10T13:07:07;15.70;84.60
27314;DHT22;14800;48.174;9.798;2023-05-10T13:09:33;15.70;84.80
27314;DHT22;14800;48.174;9.798;2023-05-10T13:11:59;15.70;84.60
27314;DHT22;14800;48.174;9.798;2023-05-10T13:14:25;15.70;84.60
27314;DHT22;14800;48.174;9.798;2023-05-10T13:16:50;15.70;84.60
27314;DHT22;14800;48.174;9.798;2023-05-10T13:19:17;15.70;84.30
27314;DHT22;14800;48.174;9.798;2023-05-10T13:21:43;15.70;83.90
27314;DHT22;14800;48.174;9.798;2023-05-10T13:24:10;15.60;83.80
27314;DHT22;14800;48.174;9.798;2023-05-10T13:26:39;15.60;83.40
27314;DHT22;14800;48.174;9.798;2023-05-10T13:29:05;15.60;83.00
27314;DHT22;14800;48.174;9.798;2023-05-10T13:31:30;15.50;81.80
27314;DHT22;14800;48.174;9.798;2023-05-10T13:33:56;15.40;81.30
27314;DHT22;14800;48.174;9.798;2023-05-10T13:36:21;15.20;81.10
27314;DHT22;14800;48.174;9.798;2023-05-10T13:38:48;15.10;81.20
27314;DHT22;14800;48.174;9.798;2023-05-10T13:41:13;14.90;81.00
27314;DHT22;14800;48.174;9.798;2023-05-10T13:43:39;14.70;81.00
27314;DHT22;14800;48.174;9.798;2023-05-10T13:46:05;14.50;81.70
27314;DHT22;14800;48.174;9.798;2023-05-10T13:48:31;14.40;82.20
27314;DHT22;14800;48.174;9.798;2023-05-10T13:50:56;14.30;82.90
27314;DHT22;14800;48.174;9.798;2023-05-10T13:53:22;14.20;83.40
27314;DHT22;14800;48.174;9.798;2023-05-10T13:55:48;14.10;84.40
27314;DHT22;14800;48.174;9.798;2023-05-10T13:58:13;14.00;85.00
27314;DHT22;14800;48.174;9.798;2023-05-10T14:00:39;14.00;85.00
27314;DHT22;14800;48.174;9.798;2023-05-10T14:03:05;14.00;85.50
27314;DHT22;14800;48.174;9.798;2023-05-10T14:05:31;14.00;85.70
27314;DHT22;14800;48.174;9.798;2023-05-10T14:07:57;14.10;85.90
27314;DHT22;14800;48.174;9.798;2023-05-10T14:10:22;14.10;86.20
27314;DHT22;14800;48.174;9.798;2023-05-10T14:12:50;14.20;86.40
27314;DHT22;14800;48.174;9.798;2023-05-10T14:15:16;14.20;86.70
27314;DHT22;14800;48.174;9.798;2023-05-10T14:17:41;14.30;87.00
27314;DHT22;14800;48.174;9.798;2023-05-10T14:20:07;14.40;87.30
27314;DHT22;14800;48.174;9.798;2023-05-10T14:22:33;14.50;87.20
27314;DHT22;14800;48.174;9.798;2023-05-10T14:24:59;14.60;86.90
27314;DHT22;14800;48.174;9.798;2023-05-10T14:27:25;14.70;86.70
27314;DHT22;14800;48.174;9.798;2023-05-10T14:29:50;14.80;87.00
27314;DHT22;14800;48.174;9.798;2023-05-10T14:32:16;14.80;87.00
27314;DHT22;14800;48.174;9.798;2023-05-10T14:34:42;14.90;86.80
27314;DHT22;14800;48.174;9.798;2023-05-10T14:37:10;15.00;86.90
27314;DHT22;14800;48.174;9.798;2023-05-10T14:39:36;15.00;86.70
27314;DHT22;14800;48.174;9.798;2023-05-10T14:42:02;15.10;86.60
27314;DHT22;14800;48.174;9.798;2023-05-10T14:44:28;15.10;86.50
27314;DHT22;14800;48.174;9.798;2023-05-10T14:46:53;15.20;86.60
27314;DHT22;14800;48.174;9.798;2023-05-10T14:49:19;15.20;86.40
27314;DHT22;14800;48.174;9.798;2023-05-10T14:51:47;15.30;86.50
27314;DHT22;14800;48.174;9.798;2023-05-10T14:54:13;15.30;86.40
27314;DHT22;14800;48.174;9.798;2023-05-10T14:56:39;15.40;86.40
27314;DHT22;14800;48.174;9.798;2023-05-10T14:59:06;15.50;86.00
27314;DHT22;14800;48.174;9.798;2023-05-10T15:01:32;15.60;85.70
27314;DHT22;14800;48.174;9.798;2023-05-10T15:03:59;15.60;85.40
27314;DHT22;14800;48.174;9.798;2023-05-10T15:06:31;15.70;85.20
27314;DHT22;14800;48.174;9.798;2023-05-10T15:08:57;15.70;84.70
27314;DHT22;14800;48.174;9.798;2023-05-10T15:11:22;15.80;84.50
27314;DHT22;14800;48.174;9.798;2023-05-10T15:13:48;15.80;84.30
27314;DHT22;14800;48.174;9.798;2023-05-10T15:16:13;15.80;84.20
27314;DHT22;14800;48.174;9.798;2023-05-10T15:18:39;15.80;84.00
27314;DHT22;14800;48.174;9.798;2023-05-10T15:21:04;15.80;83.80
27314;DHT22;14800;48.174;9.798;2023-05-10T15:23:30;15.80;83.40
27314;DHT22;14800;48.174;9.798;2023-05-10T15:25:56;15.80;83.30
27314;DHT22;14800;48.174;9.798;2023-05-10T15:28:22;15.80;83.30
27314;DHT22;14800;48.174;9.798;2023-05-10T15:30:48;15.80;83.50
27314;DHT22;14800;48.174;9.798;2023-05-10T15:33:13;15.80;83.30
27314;DHT22;14800;48.174;9.798;2023-05-10T15:35:39;15.80;83.40
27314;DHT22;14800;48.174;9.798;2023-05-10T15:38:05;15.80;83.60
27314;DHT22;14800;48.174;9.798;2023-05-10T15:40:31;15.80;83.60
27314;DHT22;14800;48.174;9.798;2023-05-10T15:42:56;15.80;83.30
27314;DHT22;14800;48.174;9.798;2023-05-10T15:45:22;15.80;83.30
27314;DHT22;14800;48.174;9.798;2023-05-10T15:47:48;15.80;83.70
27314;DHT22;14800;48.174;9.798;2023-05-10T15:50:14;15.80;83.80
27314;DHT22;14800;48.174;9.798;2023-05-10T15:52:41;15.80;83.80
27314;DHT22;14800;48.174;9.798;2023-05-10T15:55:08;15.80;84.00
27314;DHT22;14800;48.174;9.798;2023-05-10T15:57:40;15.90;83.60